createdAt,value
2023-03-31T00:01:52.748Z,11.20
2023-03-31T00:04:24.277Z,11.20
2023-03-31T00:06:53.973Z,11.20
2023-03-31T00:09:22.150Z,11.20
2023-03-31T00:11:52.284Z,11.20
2023-03-31T00:14:19.626Z,11.20
2023-03-31T00:16:46.542Z,11.20
2023-03-31T00:19:19.934Z,11.20
2023-03-31T00:21:47.727Z,11.10
2023-03-31T00:24:14.815Z,11.10
2023-03-31T00:26:41.501Z,11.00
2023-03-31T00:29:09.528Z,11.00
2023-03-31T00:31:36.422Z,10.90
2023-03-31T00:34:03.271Z,10.90
2023-03-31T00:36:30.119Z,10.80
2023-03-31T00:39:02.342Z,10.80
2023-03-31T00:41:29.280Z,10.70
2023-03-31T00:44:09.535Z,10.70
2023-03-31T00:46:46.722Z,10.70
2023-03-31T00:49:38.236Z,10.70
2023-03-31T00:52:13.424Z,10.70
2023-03-31T00:54:40.640Z,10.60
2023-03-31T00:57:07.596Z,10.60
2023-03-31T00:59:39.606Z,10.50
2023-03-31T01:02:06.356Z,10.50
2023-03-31T01:04:36.225Z,10.50
2023-03-31T01:07:12.491Z,10.40
2023-03-31T01:09:39.404Z,10.40
2023-03-31T01:12:07.314Z,10.30
2023-03-31T01:14:34.096Z,10.30
2023-03-31T01:17:02.692Z,10.30
2023-03-31T01:19:42.588Z,10.30
2023-03-31T01:22:37.947Z,10.30
2023-03-31T01:25:54.963Z,10.30
2023-03-31T01:28:21.741Z,10.30
2023-03-31T01:31:11.307Z,10.30
2023-03-31T01:34:08.579Z,10.30
2023-03-31T01:36:55.922Z,10.30
2023-03-31T01:39:44.187Z,10.30
2023-03-31T01:42:24.304Z,10.40
2023-03-31T01:44:55.618Z,10.30
2023-03-31T01:47:32.891Z,10.40
2023-03-31T01:50:03.827Z,10.30
2023-03-31T01:52:37.866Z,10.40
2023-03-31T01:55:21.684Z,10.40
2023-03-31T01:57:53.316Z,10.30
2023-03-31T02:00:23.914Z,10.30
2023-03-31T02:03:17.826Z,10.30
2023-03-31T02:05:51.569Z,10.30
2023-03-31T02:08:27.091Z,10.20
2023-03-31T02:10:53.837Z,10.30
2023-03-31T02:13:21.036Z,10.30
2023-03-31T02:15:50.522Z,10.30
2023-03-31T02:18:19.069Z,10.30
2023-03-31T02:20:47.732Z,10.30
2023-03-31T02:23:15.694Z,10.30
2023-03-31T02:25:47.050Z,10.30
2023-03-31T02:28:16.629Z,10.20
2023-03-31T02:30:51.804Z,10.30
2023-03-31T02:33:19.181Z,10.10
2023-03-31T02:35:46.109Z,10.10
2023-03-31T02:38:12.866Z,10.00
2023-03-31T02:40:40.204Z,10.10
2023-03-31T02:43:06.896Z,10.00
2023-03-31T02:45:46.499Z,10.00
2023-03-31T02:48:19.154Z,10.00
2023-03-31T02:51:19.344Z,10.00
2023-03-31T02:53:55.166Z,10.00
2023-03-31T02:56:36.417Z,10.10
2023-03-31T02:59:10.121Z,10.10
2023-03-31T03:02:14.511Z,10.10
2023-03-31T03:04:54.252Z,10.10
2023-03-31T03:07:46.320Z,10.10
2023-03-31T03:10:27.923Z,10.10
2023-03-31T03:13:03.952Z,10.20
2023-03-31T03:15:33.169Z,10.10
2023-03-31T03:17:59.995Z,10.10
2023-03-31T03:20:27.390Z,10.10
2023-03-31T03:22:54.064Z,10.00
2023-03-31T03:25:21.009Z,10.00
2023-03-31T03:27:47.876Z,9.90
2023-03-31T03:30:14.854Z,9.80
2023-03-31T03:32:42.109Z,9.90
2023-03-31T03:35:09.205Z,9.90
2023-03-31T03:37:36.078Z,9.90
2023-03-31T03:40:03.769Z,9.90
2023-03-31T03:42:30.429Z,10.00
2023-03-31T03:44:57.095Z,9.90
2023-03-31T03:47:23.888Z,9.90
2023-03-31T03:49:50.666Z,9.90
2023-03-31T03:52:17.364Z,9.90
2023-03-31T03:54:44.044Z,9.90
2023-03-31T03:57:10.890Z,9.90
2023-03-31T03:59:37.640Z,9.90
2023-03-31T04:02:04.327Z,10.00
2023-03-31T04:04:31.187Z,10.00
2023-03-31T04:06:57.909Z,10.00
2023-03-31T04:09:24.584Z,10.00
2023-03-31T04:11:51.239Z,10.00
2023-03-31T04:14:18.092Z,9.90
2023-03-31T04:16:46.768Z,9.90
2023-03-31T04:19:17.482Z,9.90
2023-03-31T04:21:58.775Z,9.90
2023-03-31T04:24:30.685Z,10.00
2023-03-31T04:26:57.937Z,10.00
2023-03-31T04:29:26.566Z,9.90
2023-03-31T04:31:58.867Z,9.90
2023-03-31T04:34:35.635Z,9.80
2023-03-31T04:37:02.818Z,9.80
2023-03-31T04:39:32.806Z,9.80
2023-03-31T04:42:10.674Z,9.80
2023-03-31T04:44:37.474Z,9.70
2023-03-31T04:47:06.778Z,9.80
2023-03-31T04:49:33.600Z,9.70
2023-03-31T04:52:00.593Z,9.70
2023-03-31T04:54:27.327Z,9.70
2023-03-31T04:56:54.233Z,9.80
2023-03-31T04:59:21.078Z,9.80
2023-03-31T05:01:48.009Z,9.90
2023-03-31T05:04:14.879Z,9.90
2023-03-31T05:06:41.601Z,9.90
2023-03-31T05:09:09.601Z,9.90
2023-03-31T05:11:36.621Z,9.90
2023-03-31T05:14:03.393Z,9.90
2023-03-31T05:16:30.515Z,9.90
2023-03-31T05:18:57.430Z,9.90
2023-03-31T05:21:24.204Z,9.90
2023-03-31T05:23:50.998Z,9.90
2023-03-31T05:26:17.919Z,9.90
2023-03-31T05:28:44.687Z,9.90
2023-03-31T05:31:12.949Z,9.90
2023-03-31T05:33:41.644Z,9.90
2023-03-31T05:36:10.357Z,9.80
2023-03-31T05:38:37.479Z,9.80
2023-03-31T05:41:04.294Z,9.80
2023-03-31T05:43:31.038Z,9.70
2023-03-31T05:45:57.741Z,9.70
2023-03-31T05:48:24.435Z,9.70
2023-03-31T05:50:51.209Z,9.70
2023-03-31T05:53:17.919Z,9.70
2023-03-31T05:55:44.629Z,9.70
2023-03-31T05:58:11.477Z,9.80
2023-03-31T06:00:38.242Z,9.80
2023-03-31T06:03:07.971Z,9.90
2023-03-31T06:05:35.278Z,9.90
2023-03-31T06:08:01.994Z,10.00
2023-03-31T06:10:28.732Z,10.10
2023-03-31T06:12:55.492Z,10.20
2023-03-31T06:15:22.167Z,10.30
2023-03-31T06:17:48.858Z,10.30
2023-03-31T06:20:27.326Z,10.30
2023-03-31T06:22:54.886Z,10.40
2023-03-31T06:25:21.746Z,10.40
2023-03-31T06:27:48.596Z,10.40
2023-03-31T06:30:15.421Z,10.30
2023-03-31T06:32:42.245Z,10.40
2023-03-31T06:35:09.428Z,10.30
2023-03-31T06:37:36.121Z,10.40
2023-03-31T06:40:03.045Z,10.40
2023-03-31T06:42:29.803Z,10.50
2023-03-31T06:44:56.746Z,10.50
2023-03-31T06:47:23.463Z,10.60
2023-03-31T06:49:50.366Z,10.50
2023-03-31T06:52:17.131Z,10.60
2023-03-31T06:54:44.029Z,10.70
2023-03-31T06:57:10.979Z,10.70
2023-03-31T06:59:37.694Z,10.70
2023-03-31T07:02:04.464Z,10.70
2023-03-31T07:04:31.234Z,10.70
2023-03-31T07:07:01.365Z,10.70
2023-03-31T07:09:28.057Z,10.60
2023-03-31T07:11:56.872Z,10.60
2023-03-31T07:14:23.750Z,10.60
2023-03-31T07:16:50.919Z,10.60
2023-03-31T07:19:17.968Z,10.60
2023-03-31T07:21:44.685Z,10.70
2023-03-31T07:24:11.487Z,10.80
2023-03-31T07:26:38.153Z,10.80
2023-03-31T07:29:04.985Z,10.90
2023-03-31T07:31:31.988Z,10.80
2023-03-31T07:33:58.788Z,10.90
2023-03-31T07:36:25.653Z,10.90
2023-03-31T07:38:52.425Z,10.90
2023-03-31T07:41:20.102Z,10.90
2023-03-31T07:43:46.800Z,10.90
2023-03-31T07:46:27.262Z,10.90
2023-03-31T07:48:54.286Z,10.80
2023-03-31T07:51:24.435Z,10.80
2023-03-31T07:53:52.454Z,10.90
2023-03-31T07:56:23.519Z,10.80
2023-03-31T07:58:51.497Z,10.80
2023-03-31T08:01:21.663Z,10.80
2023-03-31T08:03:48.734Z,10.70
2023-03-31T08:06:19.737Z,10.70
2023-03-31T08:08:46.432Z,10.70
2023-03-31T08:11:13.965Z,10.70
2023-03-31T08:13:40.784Z,10.70
2023-03-31T08:16:07.661Z,10.80
2023-03-31T08:18:34.621Z,10.90
2023-03-31T08:21:01.306Z,11.00
2023-03-31T08:23:28.027Z,11.20
2023-03-31T08:25:54.756Z,11.30
2023-03-31T08:28:21.515Z,11.40
2023-03-31T08:30:48.168Z,11.70
2023-03-31T08:33:14.898Z,11.90
2023-03-31T08:35:41.763Z,12.00
2023-03-31T08:38:08.498Z,11.90
2023-03-31T08:40:35.273Z,11.80
2023-03-31T08:43:08.775Z,11.70
2023-03-31T08:45:37.795Z,11.70
2023-03-31T08:48:07.527Z,11.70
2023-03-31T08:50:35.580Z,11.70
2023-03-31T08:53:06.966Z,11.90
2023-03-31T08:55:53.161Z,11.80
2023-03-31T08:58:26.083Z,11.90
2023-03-31T09:01:19.637Z,11.90
2023-03-31T09:03:58.702Z,12.00
2023-03-31T09:06:33.408Z,12.10
2023-03-31T09:09:01.865Z,12.20
2023-03-31T09:11:33.401Z,12.20
2023-03-31T09:14:02.929Z,12.10
2023-03-31T09:17:02.300Z,12.10
2023-03-31T09:19:49.002Z,12.00
2023-03-31T09:22:19.651Z,11.80
2023-03-31T09:25:06.683Z,11.90
2023-03-31T09:27:34.936Z,11.90
2023-03-31T09:30:37.164Z,11.90
2023-03-31T09:33:18.593Z,11.90
2023-03-31T09:35:46.403Z,12.20
2023-03-31T09:38:13.913Z,12.30
2023-03-31T09:40:40.622Z,12.20
2023-03-31T09:43:21.559Z,12.20
2023-03-31T09:46:05.398Z,12.40
2023-03-31T09:48:36.111Z,12.40
2023-03-31T09:51:05.866Z,12.40
2023-03-31T09:53:43.207Z,12.20
2023-03-31T09:56:11.447Z,12.10
2023-03-31T09:58:43.035Z,12.00
2023-03-31T10:01:11.561Z,12.00
2023-03-31T10:03:51.885Z,12.10
2023-03-31T10:06:18.816Z,12.20
2023-03-31T10:08:56.230Z,12.30
2023-03-31T10:11:23.208Z,12.30
2023-03-31T10:13:52.026Z,12.50
2023-03-31T10:16:28.803Z,12.60
2023-03-31T10:18:57.276Z,12.80
2023-03-31T10:21:26.041Z,12.70
2023-03-31T10:23:53.625Z,12.80
2023-03-31T10:26:26.879Z,12.50
2023-03-31T10:28:55.182Z,12.40
2023-03-31T10:31:27.095Z,12.40
2023-03-31T10:33:54.020Z,12.40
2023-03-31T10:36:27.483Z,12.40
2023-03-31T10:38:54.313Z,12.40
2023-03-31T10:41:26.128Z,12.40
2023-03-31T10:43:54.623Z,12.20
2023-03-31T10:46:21.567Z,12.20
2023-03-31T10:48:48.351Z,12.30
2023-03-31T10:51:25.785Z,12.80
2023-03-31T10:53:57.139Z,12.80
2023-03-31T10:56:41.351Z,12.90
2023-03-31T10:59:14.793Z,13.00
2023-03-31T11:02:03.408Z,13.00
2023-03-31T11:04:53.057Z,13.10
2023-03-31T11:07:31.769Z,13.20
2023-03-31T11:10:17.358Z,12.90
2023-03-31T11:12:56.501Z,12.50
2023-03-31T11:16:01.298Z,12.30
2023-03-31T11:18:28.198Z,12.20
2023-03-31T11:21:01.572Z,12.00
2023-03-31T11:23:44.455Z,11.80
2023-03-31T11:26:21.752Z,11.80
2023-03-31T11:29:22.230Z,11.80
2023-03-31T11:31:54.992Z,11.80
2023-03-31T11:34:45.971Z,12.00
2023-03-31T11:37:41.562Z,12.40
2023-03-31T11:40:30.347Z,13.00
2023-03-31T11:43:34.060Z,13.60
2023-03-31T11:46:07.934Z,13.50
2023-03-31T11:48:46.991Z,13.70
2023-03-31T11:51:17.092Z,14.30
2023-03-31T11:53:43.959Z,14.60
2023-03-31T11:56:10.819Z,14.70
2023-03-31T11:58:53.027Z,14.70
2023-03-31T12:01:57.381Z,14.60
2023-03-31T12:04:40.875Z,14.30
2023-03-31T12:07:31.538Z,14.30
2023-03-31T12:10:20.873Z,14.30
2023-03-31T12:13:09.712Z,14.70
2023-03-31T12:15:51.376Z,14.60
2023-03-31T12:18:22.820Z,14.90
2023-03-31T12:20:52.073Z,14.90
2023-03-31T12:23:20.643Z,14.60
2023-03-31T12:25:53.243Z,14.70
2023-03-31T12:28:20.271Z,14.80
2023-03-31T12:30:47.986Z,15.00
2023-03-31T12:33:22.653Z,14.80
2023-03-31T12:36:01.500Z,14.70
2023-03-31T12:38:34.215Z,14.60
2023-03-31T12:41:30.093Z,14.40
2023-03-31T12:44:50.812Z,14.30
2023-03-31T12:47:41.299Z,14.00
2023-03-31T12:50:40.703Z,13.50
2023-03-31T12:53:54.790Z,12.90
2023-03-31T12:56:21.800Z,12.40
2023-03-31T12:58:48.485Z,12.40
2023-03-31T13:01:22.910Z,12.50
2023-03-31T13:04:28.389Z,13.00
2023-03-31T13:06:57.083Z,13.40
2023-03-31T13:09:42.651Z,13.60
2023-03-31T13:12:16.245Z,13.60
2023-03-31T13:14:44.610Z,13.70
2023-03-31T13:17:28.860Z,13.70
2023-03-31T13:19:56.654Z,13.90
2023-03-31T13:22:32.311Z,13.80
2023-03-31T13:25:30.361Z,13.80
2023-03-31T13:27:58.145Z,13.70
2023-03-31T13:30:37.148Z,13.60
2023-03-31T13:33:18.585Z,13.60
2023-03-31T13:35:51.486Z,13.50
2023-03-31T13:38:24.453Z,13.60
2023-03-31T13:41:06.645Z,13.50
2023-03-31T13:44:06.444Z,13.50
2023-03-31T13:46:59.595Z,13.50
2023-03-31T13:49:52.271Z,13.50
2023-03-31T13:52:52.602Z,13.50
2023-03-31T13:55:34.451Z,13.50
2023-03-31T13:58:24.940Z,13.50
2023-03-31T14:01:11.836Z,13.50
2023-03-31T14:04:03.557Z,13.30
2023-03-31T14:06:52.769Z,13.30
2023-03-31T14:09:22.108Z,13.30
2023-03-31T14:11:48.875Z,13.30
2023-03-31T14:14:16.875Z,13.20
2023-03-31T14:16:48.388Z,13.10
2023-03-31T14:19:43.024Z,12.90
2023-03-31T14:22:32.420Z,12.90
2023-03-31T14:25:15.838Z,12.90
2023-03-31T14:27:53.659Z,12.90
2023-03-31T14:30:52.621Z,13.00
2023-03-31T14:33:34.602Z,13.00
2023-03-31T14:36:21.647Z,12.90
2023-03-31T14:38:48.381Z,12.90
2023-03-31T14:41:29.368Z,12.80
2023-03-31T14:44:00.664Z,12.60
2023-03-31T14:46:29.391Z,12.50
2023-03-31T14:48:57.658Z,12.00
2023-03-31T14:51:29.647Z,11.80
2023-03-31T14:53:57.623Z,11.90
2023-03-31T14:56:37.397Z,12.00
2023-03-31T14:59:04.109Z,12.10
2023-03-31T15:01:35.696Z,12.20
2023-03-31T15:04:11.191Z,12.30
2023-03-31T15:06:39.832Z,12.40
2023-03-31T15:09:06.541Z,12.30
2023-03-31T15:11:33.410Z,12.30
2023-03-31T15:14:05.504Z,12.10
2023-03-31T15:16:43.699Z,12.00
2023-03-31T15:19:19.353Z,11.80
2023-03-31T15:21:46.389Z,11.60
2023-03-31T15:24:14.421Z,11.50
2023-03-31T15:26:57.445Z,11.70
2023-03-31T15:29:31.245Z,11.80
2023-03-31T15:31:58.592Z,11.80
2023-03-31T15:34:27.078Z,11.90
2023-03-31T15:36:57.335Z,11.90
2023-03-31T15:39:25.352Z,11.90
2023-03-31T15:41:52.687Z,11.90
2023-03-31T15:44:39.643Z,11.80
2023-03-31T15:47:21.834Z,11.60
2023-03-31T15:49:52.969Z,11.10
2023-03-31T15:52:30.721Z,10.90
2023-03-31T15:54:57.743Z,10.90
2023-03-31T15:57:31.915Z,11.00
2023-03-31T16:00:00.287Z,11.10
2023-03-31T16:02:40.082Z,11.30
2023-03-31T16:07:53.985Z,11.50
2023-03-31T16:10:22.773Z,11.60
2023-03-31T16:13:00.926Z,11.60
2023-03-31T16:13:34.647Z,11.40
2023-03-31T16:15:39.246Z,11.60
2023-03-31T16:18:12.235Z,11.60
2023-03-31T16:20:50.404Z,11.50
2023-03-31T16:23:21.411Z,11.60
2023-03-31T16:25:48.200Z,11.60
2023-03-31T16:28:20.637Z,11.60
2023-03-31T16:30:47.462Z,11.70
2023-03-31T16:33:16.086Z,11.70
2023-03-31T16:35:44.742Z,11.80
2023-03-31T16:38:12.413Z,11.80
2023-03-31T16:40:43.797Z,11.80
2023-03-31T16:43:17.369Z,11.80
2023-03-31T16:45:45.604Z,11.70
2023-03-31T16:48:16.447Z,11.70
2023-03-31T16:50:51.381Z,11.70
2023-03-31T16:53:19.767Z,11.60
2023-03-31T16:55:47.119Z,11.60
2023-03-31T16:58:14.039Z,11.50
2023-03-31T17:00:41.180Z,11.50
2023-03-31T17:03:08.995Z,11.40
2023-03-31T17:05:43.856Z,11.40
2023-03-31T17:08:11.128Z,11.40
2023-03-31T17:10:38.293Z,11.40
2023-03-31T17:13:05.369Z,11.40
2023-03-31T17:15:32.180Z,11.40
2023-03-31T17:17:59.195Z,11.40
2023-03-31T17:20:26.322Z,11.40
2023-03-31T17:22:53.971Z,11.30
2023-03-31T17:25:21.338Z,11.30
2023-03-31T17:27:48.564Z,11.20
2023-03-31T17:30:15.552Z,11.10
2023-03-31T17:32:42.486Z,11.00
2023-03-31T17:35:11.590Z,10.90
2023-03-31T17:37:38.497Z,10.90
2023-03-31T17:40:06.254Z,10.80
2023-03-31T17:42:33.043Z,10.80
2023-03-31T17:44:59.718Z,10.70
2023-03-31T17:47:27.102Z,10.70
2023-03-31T17:49:53.825Z,10.70
2023-03-31T17:52:20.570Z,10.60
2023-03-31T17:54:49.458Z,10.60
2023-03-31T17:57:17.882Z,10.50
2023-03-31T17:59:45.062Z,10.60
2023-03-31T18:02:13.162Z,10.50
2023-03-31T18:04:39.921Z,10.50
2023-03-31T18:07:06.799Z,10.50
2023-03-31T18:09:33.920Z,10.50
2023-03-31T18:12:00.699Z,10.50
2023-03-31T18:14:27.608Z,10.40
2023-03-31T18:16:54.425Z,10.40
2023-03-31T18:19:22.437Z,10.40
2023-03-31T18:21:49.139Z,10.50
2023-03-31T18:24:16.749Z,10.60
2023-03-31T18:26:43.661Z,10.60
2023-03-31T18:29:10.589Z,10.60
2023-03-31T18:31:37.913Z,10.60
2023-03-31T18:34:05.789Z,10.60
2023-03-31T18:36:32.893Z,10.70
2023-03-31T18:38:59.655Z,10.60
2023-03-31T18:41:26.382Z,10.70
2023-03-31T18:43:53.120Z,10.60
2023-03-31T18:46:20.024Z,10.60
2023-03-31T18:48:46.760Z,10.60
2023-03-31T18:51:14.428Z,10.50
2023-03-31T18:53:41.464Z,10.50
2023-03-31T18:56:08.189Z,10.50
2023-03-31T18:58:35.045Z,10.50
2023-03-31T19:01:01.822Z,10.50
2023-03-31T19:03:28.865Z,10.50
2023-03-31T19:06:06.559Z,10.50
2023-03-31T19:08:33.328Z,10.50
2023-03-31T19:11:04.782Z,10.50
2023-03-31T19:13:31.870Z,10.50
2023-03-31T19:15:58.539Z,10.50
2023-03-31T19:18:28.067Z,10.50
2023-03-31T19:20:55.071Z,10.50
2023-03-31T19:23:22.772Z,10.50
2023-03-31T19:25:53.514Z,10.50
2023-03-31T19:28:20.812Z,10.40
2023-03-31T19:30:51.689Z,10.40
2023-03-31T19:33:18.815Z,10.40
2023-03-31T19:35:46.311Z,10.30
2023-03-31T19:38:13.239Z,10.40
2023-03-31T19:40:40.250Z,10.30
2023-03-31T19:43:06.963Z,10.30
2023-03-31T19:45:36.214Z,10.20
2023-03-31T19:48:02.956Z,10.10
2023-03-31T19:50:29.645Z,10.10
2023-03-31T19:52:56.469Z,10.10
2023-03-31T19:55:23.131Z,10.10
2023-03-31T19:57:49.794Z,10.10
2023-03-31T20:00:19.348Z,10.10
2023-03-31T20:02:46.682Z,10.10
2023-03-31T20:05:14.230Z,10.00
2023-03-31T20:07:40.966Z,10.00
2023-03-31T20:10:08.236Z,10.00
2023-03-31T20:12:34.974Z,10.00
2023-03-31T20:15:01.761Z,10.00
2023-03-31T20:17:28.486Z,9.90
2023-03-31T20:19:55.307Z,9.90
2023-03-31T20:22:22.096Z,9.90
2023-03-31T20:24:48.838Z,9.90
2023-03-31T20:27:15.798Z,9.90
2023-03-31T20:29:42.726Z,9.90
2023-03-31T20:32:09.752Z,9.90
2023-03-31T20:34:37.165Z,10.00
2023-03-31T20:37:04.180Z,10.10
2023-03-31T20:39:31.031Z,10.00
2023-03-31T20:41:57.671Z,10.00
2023-03-31T20:44:24.430Z,10.00
2023-03-31T20:46:52.409Z,9.90
2023-03-31T20:49:19.323Z,10.00
2023-03-31T20:51:46.941Z,9.90
2023-03-31T20:54:13.813Z,9.90
2023-03-31T20:56:41.515Z,9.90
2023-03-31T20:59:12.623Z,9.80
2023-03-31T21:01:39.795Z,9.80
2023-03-31T21:04:07.190Z,9.80
2023-03-31T21:06:41.657Z,9.80
2023-03-31T21:09:08.818Z,9.80
2023-03-31T21:11:35.596Z,9.80
2023-03-31T21:14:02.336Z,9.70
2023-03-31T21:16:29.131Z,9.70
2023-03-31T21:18:56.920Z,9.60
2023-03-31T21:21:24.375Z,9.60
2023-03-31T21:23:51.412Z,9.50
2023-03-31T21:26:18.308Z,9.50
2023-03-31T21:28:45.372Z,9.50
2023-03-31T21:31:17.788Z,9.50
2023-03-31T21:33:45.914Z,9.50
2023-03-31T21:36:17.723Z,9.50
2023-03-31T21:38:45.617Z,9.50
2023-03-31T21:41:16.991Z,9.50
2023-03-31T21:43:43.950Z,9.50
2023-03-31T21:46:22.604Z,9.50
2023-03-31T21:48:49.591Z,9.50
2023-03-31T21:51:17.593Z,9.50
2023-03-31T21:53:44.316Z,9.50
2023-03-31T21:56:10.983Z,9.50
2023-03-31T21:58:37.623Z,9.40
2023-03-31T22:01:04.554Z,9.50
2023-03-31T22:03:33.931Z,9.50
2023-03-31T22:06:06.840Z,9.50
2023-03-31T22:08:33.853Z,9.50
2023-03-31T22:11:00.720Z,9.50
2023-03-31T22:13:27.636Z,9.50
2023-03-31T22:15:54.481Z,9.50
2023-03-31T22:18:21.965Z,9.50
2023-03-31T22:20:48.917Z,9.50
2023-03-31T22:23:15.877Z,9.50
2023-03-31T22:25:42.650Z,9.50
2023-03-31T22:28:09.431Z,9.50
2023-03-31T22:30:36.645Z,9.50
2023-03-31T22:33:03.462Z,9.50
2023-03-31T22:35:30.327Z,9.60
2023-03-31T22:37:57.240Z,9.60
2023-03-31T22:40:24.122Z,9.50
2023-03-31T22:42:50.908Z,9.60
2023-03-31T22:45:17.709Z,9.60
2023-03-31T22:47:44.431Z,9.60
2023-03-31T22:50:11.358Z,9.60
2023-03-31T22:52:38.159Z,9.60
2023-03-31T22:55:06.107Z,9.60
2023-03-31T22:57:33.115Z,9.50
2023-03-31T23:00:00.010Z,9.40
2023-03-31T23:02:26.712Z,9.40
2023-03-31T23:04:53.382Z,9.40
2023-03-31T23:07:21.791Z,9.40
2023-03-31T23:09:48.968Z,9.40
2023-03-31T23:12:15.844Z,9.40
2023-03-31T23:14:42.596Z,9.30
2023-03-31T23:17:09.377Z,9.30
2023-03-31T23:19:37.711Z,9.30
2023-03-31T23:22:04.553Z,9.30
2023-03-31T23:24:31.211Z,9.30
2023-03-31T23:26:58.034Z,9.30
2023-03-31T23:29:24.726Z,9.10
2023-03-31T23:31:51.613Z,9.10
2023-03-31T23:34:18.315Z,9.00
2023-03-31T23:36:45.021Z,9.00
2023-03-31T23:39:11.860Z,9.00
2023-03-31T23:41:38.589Z,9.00
2023-03-31T23:44:06.112Z,9.00
2023-03-31T23:46:33.445Z,8.90
2023-03-31T23:49:02.491Z,8.90
2023-03-31T23:51:29.166Z,8.80
2023-03-31T23:53:56.211Z,8.80
2023-03-31T23:56:22.963Z,8.80
2023-03-31T23:58:49.853Z,8.80
